Time;durP1;ratioP1;P1;durP2;ratioP2;P2;SDS_P1;SDS_P2;PMS_P1;PMS_P2;Temp;Humidity;BMP_temperature;BMP_pressure;BME280_temperature;BME280_humidity;BME280_pressure;Samples;Min_cycle;Max_cycle;Signal;HPM_P1;HPM_P2
2021/11/06 00:01:19;;;;;;;2.77;2.53;;;0.40;99.90;-0.80;97753.00;;;;5072847;28;20807;-83
2021/11/06 00:04:08;;;;;;;2.70;1.73;;;0.30;99.90;-0.60;97768.00;;;;5083276;28;20438;-82
2021/11/06 00:06:58;;;;;;;2.40;1.60;;;0.20;99.90;-0.70;97776.00;;;;5080120;28;20455;-82
2021/11/06 00:09:47;;;;;;;1.53;1.10;;;0.20;99.90;-0.90;97765.00;;;;5064556;28;20434;-84
2021/11/06 00:12:40;;;;;;;3.00;1.63;;;0.20;99.90;-0.80;97756.00;;;;5077403;28;20465;-83
2021/11/06 00:15:29;;;;;;;2.83;1.90;;;0.20;99.90;-0.60;97775.00;;;;5076317;28;20426;-84
2021/11/06 00:18:18;;;;;;;3.33;2.77;;;0.20;99.90;-0.40;97767.00;;;;5076634;28;20426;-82
2021/11/06 00:21:07;;;;;;;5.23;3.27;;;0.20;99.90;-0.40;97765.00;;;;5084261;28;20472;-82
2021/11/06 00:23:56;;;;;;;2.40;2.20;;;0.10;99.90;-0.60;97767.00;;;;5073042;28;20429;-83
2021/11/06 00:26:49;;;;;;;3.80;2.13;;;0.30;99.90;-0.70;97768.00;;;;5073278;28;20473;-84
2021/11/06 00:29:40;;;;;;;1.43;1.30;;;-0.60;99.90;-0.60;97778.00;;;;5079092;28;20438;-82
2021/11/06 00:32:30;;;;;;;1.57;1.47;;;0.20;99.90;-0.50;97786.00;;;;5070965;28;20452;-83
2021/11/06 00:35:19;;;;;;;4.10;2.87;;;0.20;99.90;-0.80;97781.00;;;;5081626;28;20426;-84
2021/11/06 00:38:08;;;;;;;1.50;1.40;;;0.30;99.90;-1.00;97780.00;;;;5081172;28;20434;-82
2021/11/06 00:40:59;;;;;;;2.07;1.60;;;0.20;99.90;-0.80;97781.00;;;;5074653;28;20441;-84
2021/11/06 00:43:48;;;;;;;1.90;1.70;;;0.10;99.90;-0.80;97772.00;;;;5076366;28;20442;-84
2021/11/06 00:46:39;;;;;;;2.57;2.17;;;0.10;99.90;-0.80;97781.00;;;;5081145;28;20463;-83
2021/11/06 00:49:28;;;;;;;2.63;2.10;;;0.00;99.90;-0.90;97784.00;;;;5075659;28;20793;-83
2021/11/06 00:52:17;;;;;;;1.47;1.20;;;0.00;99.90;-1.10;97782.00;;;;5074487;28;20500;-84
2021/11/06 00:55:08;;;;;;;2.60;1.83;;;0.00;99.90;-1.40;97778.00;;;;5074613;28;20429;-82
2021/11/06 00:57:57;;;;;;;1.80;1.70;;;-0.10;99.90;-1.10;97774.00;;;;5066226;28;20433;-81
2021/11/06 01:00:47;;;;;;;2.00;1.73;;;-0.20;99.90;-1.20;97773.00;;;;5074751;28;20908;-83
2021/11/06 01:03:38;;;;;;;2.17;1.70;;;-0.20;99.90;-1.10;97782.00;;;;5075261;28;20434;-83
2021/11/06 01:06:27;;;;;;;1.50;1.40;;;-0.20;99.90;-1.10;97785.00;;;;5081042;28;20519;-83
2021/11/06 01:09:16;;;;;;;2.80;1.70;;;-0.20;99.90;-1.00;97785.00;;;;5077982;28;20427;-84
2021/11/06 01:12:07;;;;;;;4.53;1.80;;;-0.20;99.90;-0.90;97789.00;;;;5080053;28;20457;-82
2021/11/06 01:14:56;;;;;;;1.97;1.60;;;-0.20;99.90;-0.90;97785.00;;;;5077160;28;20419;-83
2021/11/06 01:17:46;;;;;;;1.47;1.37;;;-0.10;99.90;-0.80;97793.00;;;;5077837;28;20441;-84
2021/11/06 01:20:37;;;;;;;1.53;1.43;;;-0.10;99.90;-0.70;97803.00;;;;5074681;28;20430;-84
2021/11/06 01:23:26;;;;;;;1.80;1.70;;;-0.10;99.90;-1.00;97793.00;;;;5074637;28;20446;-83
2021/11/06 01:26:16;;;;;;;1.43;1.33;;;-0.10;99.90;-1.30;97798.00;;;;5073515;28;20488;-84
2021/11/06 01:29:05;;;;;;;2.17;1.97;;;-0.10;99.90;-1.50;97796.00;;;;5074181;28;20427;-84
2021/11/06 01:31:54;;;;;;;1.40;1.23;;;-0.20;99.90;-1.40;97796.00;;;;5061428;28;20450;-83
2021/11/06 01:34:43;;;;;;;1.40;1.27;;;-0.30;99.90;-1.60;97790.00;;;;5072464;28;20526;-84
2021/11/06 01:37:33;;;;;;;1.50;1.40;;;-0.20;99.90;-1.60;97789.00;;;;5065336;28;20941;-82
2021/11/06 01:40:22;;;;;;;1.20;1.20;;;-0.40;99.90;-1.40;97799.00;;;;5070982;28;20944;-82
2021/11/06 01:43:11;;;;;;;1.13;1.03;;;-0.50;99.90;-1.50;97793.00;;;;5074351;28;20458;-84
2021/11/06 01:46:02;;;;;;;0.83;0.80;;;-0.40;99.90;-1.80;97780.00;;;;5073186;28;20497;-83
2021/11/06 01:48:51;;;;;;;1.40;1.23;;;-0.50;99.90;-1.80;97799.00;;;;5073400;28;20430;-84
2021/11/06 01:51:40;;;;;;;1.63;1.53;;;-0.60;99.90;-1.60;97803.00;;;;5073407;28;20447;-84
2021/11/06 01:54:30;;;;;;;1.57;1.47;;;-0.60;99.90;-1.50;97790.00;;;;5063051;28;20426;-83
2021/11/06 01:57:19;;;;;;;2.50;1.60;;;-0.60;99.90;-1.40;97797.00;;;;5073102;28;20431;-83
2021/11/06 02:00:12;;;;;;;2.53;1.50;;;-0.50;99.90;-1.30;97802.00;;;;5074428;28;20448;-82
2021/11/06 02:03:01;;;;;;;1.40;1.30;;;-0.50;99.90;-1.20;97805.00;;;;5064631;28;20442;-84
2021/11/06 02:05:51;;;;;;;1.67;1.43;;;-0.50;99.90;-1.30;97798.00;;;;5080416;28;20459;-84
2021/11/06 02:08:40;;;;;;;5.17;1.90;;;-0.50;99.90;-1.40;97803.00;;;;5072963;28;20435;-85
2021/11/06 02:11:32;;;;;;;1.77;1.53;;;-0.50;99.90;-1.40;97796.00;;;;5075373;28;20863;-80
2021/11/06 02:14:21;;;;;;;1.60;1.50;;;-0.50;99.90;-1.50;97803.00;;;;5074318;28;20430;-82
2021/11/06 02:17:10;;;;;;;3.53;2.03;;;-0.40;99.90;-1.40;97801.00;;;;5074286;28;20818;-83
2021/11/06 02:19:59;;;;;;;3.17;2.67;;;-0.50;99.90;-1.30;97802.00;;;;5071200;28;20426;-84
2021/11/06 02:22:50;;;;;;;2.07;1.87;;;-0.50;99.90;-1.40;97798.00;;;;5076601;28;20458;-83
2021/11/06 02:25:39;;;;;;;2.47;2.27;;;-0.50;99.90;-1.50;97798.00;;;;5073493;28;20427;-84
2021/11/06 02:28:28;;;;;;;1.30;1.20;;;-0.50;99.90;-1.60;97790.00;;;;5066073;28;20427;-84
2021/11/06 02:31:17;;;;;;;3.23;1.83;;;-0.60;99.90;-1.50;97803.00;;;;5069940;28;20443;-84
2021/11/06 02:34:07;;;;;;;2.63;2.43;;;-0.60;99.90;-1.50;97804.00;;;;5071383;28;20874;-83
2021/11/06 02:36:57;;;;;;;1.90;1.73;;;-0.60;99.90;-1.60;97801.00;;;;5073692;28;20441;-83
2021/11/06 02:39:47;;;;;;;2.03;1.70;;;0.10;99.90;-1.60;97798.00;;;;5061132;28;20431;-82
2021/11/06 02:42:37;;;;;;;2.03;1.80;;;-0.60;99.90;-1.60;97797.00;;;;5071976;28;20463;-84
2021/11/06 02:45:26;;;;;;;1.70;1.60;;;-0.60;99.90;-1.70;97791.00;;;;5073621;28;20437;-85
2021/11/06 02:48:15;;;;;;;0.60;0.60;;;-0.70;99.90;-1.70;97799.00;;;;5072677;28;20435;-83
2021/11/06 02:51:04;;;;;;;9.10;1.93;;;-0.60;99.90;-1.50;97812.00;;;;5072333;28;20434;-84
2021/11/06 02:53:53;;;;;;;2.43;1.53;;;-0.70;99.90;-1.80;97815.00;;;;5071632;28;20429;-84
2021/11/06 02:56:43;;;;;;;1.23;1.10;;;-0.40;99.90;-1.90;97814.00;;;;5071904;28;20957;-84
2021/11/06 02:59:32;;;;;;;2.17;1.97;;;-0.70;99.90;-1.80;97824.00;;;;5059247;28;20418;-84
2021/11/06 03:02:21;;;;;;;2.27;2.07;;;-0.80;99.90;-1.60;97830.00;;;;5071468;28;20458;-83
2021/11/06 03:05:13;;;;;;;2.00;1.80;;;-0.80;99.90;-1.50;97836.00;;;;5068979;28;20828;-84
2021/11/06 03:08:03;;;;;;;1.43;1.33;;;-0.70;99.90;-1.30;97840.00;;;;5073219;28;20486;-85
2021/11/06 03:10:52;;;;;;;1.77;1.43;;;-0.70;99.90;-1.40;97841.00;;;;5061930;28;20431;-82
2021/11/06 03:13:44;;;;;;;1.80;1.70;;;-0.70;99.90;-1.60;97842.00;;;;5074292;28;20438;-82
2021/11/06 03:16:34;;;;;;;3.03;1.53;;;-0.60;99.90;-1.60;97841.00;;;;5072966;28;20802;-82
2021/11/06 03:19:23;;;;;;;4.30;2.40;;;-0.70;99.90;-1.40;97844.00;;;;5082998;28;20418;-82
2021/11/06 03:22:12;;;;;;;2.60;2.40;;;-0.70;99.90;-1.40;97849.00;;;;5082712;28;20531;-82
2021/11/06 03:25:03;;;;;;;4.57;1.93;;;-0.60;99.90;-1.80;97861.00;;;;5076379;28;20422;-82
2021/11/06 03:27:52;;;;;;;2.00;1.80;;;-0.60;99.90;-1.80;97854.00;;;;5075907;28;20844;-83
2021/11/06 03:30:43;;;;;;;2.17;2.00;;;-0.70;99.90;-1.90;97858.00;;;;5076185;28;20419;-82
2021/11/06 03:33:32;;;;;;;2.77;1.93;;;-0.80;99.90;-1.60;97871.00;;;;5079668;28;20485;-83
2021/11/06 03:36:21;;;;;;;2.97;1.87;;;-0.80;99.90;-1.80;97864.00;;;;5075494;28;20789;-82
2021/11/06 03:39:11;;;;;;;2.20;2.10;;;-0.80;99.90;-2.00;97872.00;;;;5078902;28;20431;-83
2021/11/06 03:42:00;;;;;;;2.53;2.07;;;-0.80;99.90;-1.70;97873.00;;;;5081959;28;20785;-82
2021/11/06 03:44:49;;;;;;;2.27;2.07;;;-0.90;99.90;-1.70;97882.00;;;;5072042;28;20456;-82
2021/11/06 03:47:39;;;;;;;2.20;2.10;;;-0.70;99.90;-2.00;97878.00;;;;5073479;28;21012;-84
2021/11/06 03:50:28;;;;;;;2.10;1.90;;;-0.90;99.90;-1.80;97864.00;;;;5075223;28;20443;-83
2021/11/06 03:53:18;;;;;;;1.57;1.43;;;-0.90;99.90;-1.70;97880.00;;;;5073123;28;20448;-84
2021/11/06 03:56:06;;;;;;;1.47;1.30;;;-0.90;99.90;-1.70;97871.00;;;;5073824;28;20435;-82
2021/11/06 03:58:56;;;;;;;1.73;1.30;;;-0.90;99.90;-1.70;97872.00;;;;5072492;28;20437;-82
2021/11/06 04:01:45;;;;;;;1.90;1.63;;;-0.80;99.90;-1.50;97877.00;;;;5072531;28;20466;-82
2021/11/06 04:04:35;;;;;;;2.37;1.93;;;-0.80;99.90;-1.40;97873.00;;;;5059995;28;21016;-82
2021/11/06 04:07:24;;;;;;;3.07;2.23;;;-0.70;99.90;-1.20;97865.00;;;;5075935;28;20851;-82
2021/11/06 04:10:13;;;;;;;1.80;1.70;;;-0.70;99.90;-1.10;97878.00;;;;5077721;28;20438;-83
2021/11/06 04:13:03;;;;;;;2.83;2.20;;;-0.50;99.90;-1.00;97877.00;;;;5075171;28;20481;-82
2021/11/06 04:15:56;;;;;;;3.47;1.73;;;-0.40;99.90;-1.50;97879.00;;;;5084980;28;20435;-83
2021/11/06 04:18:45;;;;;;;1.73;1.53;;;-0.40;99.90;-1.90;97866.00;;;;5081076;28;20456;-82
2021/11/06 04:21:36;;;;;;;2.30;1.83;;;-0.60;99.90;-1.80;97865.00;;;;5084437;28;20450;-82
2021/11/06 04:24:26;;;;;;;2.00;1.53;;;-0.70;99.90;-1.60;97869.00;;;;5079877;28;20452;-84
2021/11/06 04:27:15;;;;;;;2.17;1.97;;;-0.80;99.90;-1.70;97854.00;;;;5070102;28;20953;-84
2021/11/06 04:30:06;;;;;;;1.13;1.13;;;-0.70;99.90;-1.60;97867.00;;;;5080752;28;20426;-84
2021/11/06 04:32:55;;;;;;;1.30;1.20;;;-0.70;99.90;-1.90;97865.00;;;;5090735;28;20456;-84
2021/11/06 04:35:45;;;;;;;1.73;1.63;;;-0.80;99.90;-1.90;97851.00;;;;5080738;28;20476;-84
2021/11/06 04:38:35;;;;;;;1.53;1.00;;;-0.80;99.90;-1.90;97859.00;;;;5081423;28;20437;-84
2021/11/06 04:41:25;;;;;;;1.67;1.57;;;-0.90;99.90;-1.90;97867.00;;;;5069417;28;20454;-84
2021/11/06 04:44:17;;;;;;;2.40;1.40;;;-0.90;99.90;-1.90;97868.00;;;;5079247;28;20450;-84
2021/11/06 04:47:07;;;;;;;2.20;1.77;;;-0.90;99.90;-1.90;97872.00;;;;5078844;28;20473;-84
2021/11/06 04:49:57;;;;;;;1.33;1.23;;;-0.90;99.90;-1.80;97879.00;;;;5078532;28;20861;-84
2021/11/06 04:52:46;;;;;;;2.17;1.90;;;-0.90;99.90;-1.60;97891.00;;;;5069294;28;20812;-85
2021/11/06 04:55:36;;;;;;;2.40;2.07;;;-0.70;99.90;-1.60;97887.00;;;;5080405;28;20431;-84
2021/11/06 04:58:27;;;;;;;2.00;1.80;;;-0.90;99.90;-1.60;97878.00;;;;5082295;28;20460;-85
2021/11/06 05:01:17;;;;;;;2.17;1.77;;;-0.80;99.90;-1.70;97882.00;;;;5083342;28;20797;-83
2021/11/06 05:04:06;;;;;;;1.90;1.77;;;-0.80;99.90;-1.60;97892.00;;;;5077819;28;20525;-84
2021/11/06 05:06:55;;;;;;;1.80;1.70;;;-0.80;99.90;-1.70;97884.00;;;;5080488;28;20855;-85
2021/11/06 05:09:45;;;;;;;1.73;1.50;;;-0.80;99.90;-1.60;97883.00;;;;5093208;28;20430;-85
2021/11/06 05:12:36;;;;;;;1.60;1.50;;;-0.80;99.90;-1.70;97880.00;;;;5089280;28;20434;-85
2021/11/06 05:15:25;;;;;;;2.77;1.57;;;-0.80;99.90;-1.80;97888.00;;;;5067009;28;20426;-85
2021/11/06 05:18:28;;;;;;;4.00;1.77;;;-0.80;99.90;-1.80;97899.00;;;;5075809;28;20864;-85
2021/11/06 05:21:21;;;;;;;2.07;1.87;;;-0.90;99.90;-1.70;97892.00;;;;5068106;28;20434;-85
2021/11/06 05:24:12;;;;;;;1.77;1.67;;;-0.90;99.90;-1.70;97897.00;;;;5083342;28;20423;-84
2021/11/06 05:27:02;;;;;;;1.30;1.30;;;-0.80;99.90;-1.70;97899.00;;;;5067459;28;20438;-85
2021/11/06 05:29:56;;;;;;;1.10;1.10;;;-0.90;99.90;-1.80;97898.00;;;;5079233;28;20941;-84
2021/11/06 05:32:45;;;;;;;2.07;1.40;;;-0.90;99.90;-1.80;97906.00;;;;5075798;28;20438;-85
2021/11/06 05:35:35;;;;;;;1.53;1.43;;;-0.90;99.90;-1.70;97910.00;;;;5077577;28;20457;-85
2021/11/06 05:38:24;;;;;;;1.37;1.30;;;-0.90;99.90;-1.80;97914.00;;;;5072555;28;20437;-85
2021/11/06 05:41:13;;;;;;;1.17;1.03;;;-0.60;99.90;-1.80;97913.00;;;;5062014;28;20422;-85
2021/11/06 05:44:03;;;;;;;2.10;1.83;;;-0.80;99.90;-2.10;97919.00;;;;5078620;28;20445;-85
2021/11/06 05:46:54;;;;;;;1.80;1.70;;;-0.80;99.90;-1.70;97923.00;;;;5080973;28;20472;-85
2021/11/06 05:49:43;;;;;;;3.63;1.57;;;-0.90;99.90;-1.70;97929.00;;;;5079510;28;20431;-85
2021/11/06 05:52:36;;;;;;;1.60;1.50;;;-0.80;99.90;-1.70;97935.00;;;;5077314;28;20450;-84
2021/11/06 05:55:25;;;;;;;3.80;2.33;;;-0.80;99.90;-1.60;97928.00;;;;5077349;28;20438;-84
2021/11/06 05:58:14;;;;;;;3.70;2.83;;;-0.80;99.90;-1.80;97948.00;;;;5075736;28;20961;-84
2021/11/06 06:01:03;;;;;;;1.90;1.80;;;-0.80;99.90;-1.80;97952.00;;;;5073336;28;20418;-84
2021/11/06 06:03:53;;;;;;;0.87;0.87;;;-0.80;99.90;-2.10;97951.00;;;;5075833;28;20435;-84
2021/11/06 06:06:43;;;;;;;1.30;1.20;;;-0.70;99.90;-2.30;97951.00;;;;5075234;28;20479;-85
2021/11/06 06:09:32;;;;;;;2.97;1.77;;;-1.00;99.90;-2.10;97954.00;;;;5077363;28;20473;-84
2021/11/06 06:12:21;;;;;;;1.87;1.57;;;-1.10;99.90;-1.90;97957.00;;;;5075765;28;20855;-84
2021/11/06 06:15:11;;;;;;;4.13;3.10;;;-1.00;99.90;-1.80;97964.00;;;;5077133;28;20442;-85
2021/11/06 06:17:59;;;;;;;8.17;4.67;;;-1.00;99.90;-1.70;97948.00;;;;5076134;28;20422;-85
2021/11/06 06:20:50;;;;;;;4.87;3.13;;;-0.90;99.90;-1.80;97966.00;;;;5076860;28;20429;-85
2021/11/06 06:23:39;;;;;;;4.53;2.13;;;-1.00;99.90;-1.70;97964.00;;;;5076257;28;20430;-84
2021/11/06 06:26:28;;;;;;;3.07;1.13;;;-0.80;99.90;-1.90;97969.00;;;;5072898;28;20423;-85
2021/11/06 06:29:18;;;;;;;1.87;1.67;;;-0.90;99.90;-2.00;97969.00;;;;5075207;28;20474;-84
2021/11/06 06:32:08;;;;;;;1.83;1.70;;;-0.90;99.90;-1.80;97976.00;;;;5073583;28;20451;-85
2021/11/06 06:34:57;;;;;;;1.47;1.37;;;-0.90;99.90;-1.70;97970.00;;;;5072956;28;20435;-85
2021/11/06 06:37:47;;;;;;;1.73;1.63;;;-0.80;99.90;-1.70;97976.00;;;;5074788;28;20430;-85
2021/11/06 06:40:36;;;;;;;1.90;1.80;;;-0.80;99.90;-1.60;97985.00;;;;5076835;28;20441;-84
2021/11/06 06:43:25;;;;;;;4.37;1.93;;;-0.80;99.90;-1.40;97987.00;;;;5076208;28;20465;-85
2021/11/06 06:46:14;;;;;;;1.67;1.57;;;-0.80;99.90;-1.20;97979.00;;;;5074937;28;20641;-85
2021/11/06 06:49:04;;;;;;;1.97;1.87;;;-0.60;99.90;-1.40;97977.00;;;;5078486;28;20465;-84
2021/11/06 06:51:53;;;;;;;1.77;1.53;;;-0.40;99.90;-1.90;97994.00;;;;5074993;28;20961;-85
2021/11/06 06:54:44;;;;;;;2.20;1.67;;;-0.60;99.90;-1.70;97985.00;;;;5068996;28;20436;-85
2021/11/06 06:57:33;;;;;;;0.87;0.87;;;-0.30;99.90;-1.60;97991.00;;;;5069618;28;20433;-85
2021/11/06 07:00:22;;;;;;;1.20;1.20;;;-0.50;99.90;-1.50;97999.00;;;;5075881;28;20415;-85
2021/11/06 07:03:11;;;;;;;2.13;1.73;;;-0.60;99.90;-1.40;98003.00;;;;5070460;28;20460;-85
2021/11/06 07:06:13;;;;;;;1.67;1.57;;;-0.60;99.90;-1.30;97994.00;;;;5074300;28;20984;-84
2021/11/06 07:09:04;;;;;;;1.47;1.37;;;-0.50;99.90;-1.20;98009.00;;;;5077788;28;20992;-84
2021/11/06 07:11:54;;;;;;;1.93;1.40;;;-0.40;99.90;-1.20;98006.00;;;;5077572;28;20459;-85
2021/11/06 07:14:44;;;;;;;1.83;1.73;;;-0.10;99.90;-1.00;98003.00;;;;5062975;28;20435;-85
2021/11/06 07:17:33;;;;;;;3.10;2.87;;;-0.30;99.90;-1.00;97998.00;;;;5067519;28;20438;-85
2021/11/06 07:20:22;;;;;;;3.67;3.23;;;-0.20;99.90;-1.10;97993.00;;;;5073765;28;20948;-85
2021/11/06 07:23:11;;;;;;;4.13;2.90;;;-0.20;99.90;-1.20;98007.00;;;;5075302;28;21137;-86
2021/11/06 07:26:01;;;;;;;3.57;2.37;;;-0.20;99.90;-1.10;98001.00;;;;5078725;28;20460;-85
2021/11/06 07:28:51;;;;;;;4.43;2.67;;;-0.20;99.90;-1.00;98001.00;;;;5082987;28;20462;-85
2021/11/06 07:31:40;;;;;;;2.57;2.37;;;-0.20;99.90;-0.90;97997.00;;;;5079409;28;20446;-85
2021/11/06 07:34:29;;;;;;;1.93;1.63;;;-0.10;99.90;-0.70;98007.00;;;;5074396;28;20435;-85
2021/11/06 07:37:18;;;;;;;2.73;2.03;;;0.00;99.90;-0.70;97998.00;;;;5075616;28;20813;-85
2021/11/06 07:40:09;;;;;;;1.87;1.77;;;0.10;99.90;-0.40;97995.00;;;;5076654;28;20426;-85
2021/11/06 07:42:58;;;;;;;1.50;1.40;;;0.20;99.90;-0.30;98005.00;;;;5073669;28;21005;-85
2021/11/06 07:45:49;;;;;;;1.93;1.73;;;0.30;99.90;-0.50;97996.00;;;;5076076;28;20934;-85
2021/11/06 07:48:38;;;;;;;2.57;1.90;;;0.40;99.90;-0.30;97990.00;;;;5076494;28;20466;-85
2021/11/06 07:51:28;;;;;;;2.53;2.23;;;0.40;99.90;-0.10;98017.00;;;;5081947;28;20835;-85
2021/11/06 07:54:19;;;;;;;2.00;1.90;;;0.50;99.90;-0.10;98012.00;;;;5083496;28;20430;-86
2021/11/06 07:57:08;;;;;;;9.10;3.47;;;0.60;99.90;0.00;98011.00;;;;5067441;28;20961;-85
2021/11/06 07:59:58;;;;;;;3.27;2.90;;;0.60;99.90;0.40;97998.00;;;;5077135;28;20431;-85
2021/11/06 08:02:49;;;;;;;3.77;2.97;;;0.80;99.90;0.20;97996.00;;;;5075052;28;20443;-85
2021/11/06 08:05:38;;;;;;;2.73;2.43;;;0.90;99.90;0.30;98005.00;;;;5061307;28;20434;-85
2021/11/06 08:08:27;;;;;;;4.83;3.53;;;1.00;99.90;0.70;98007.00;;;;5075973;28;20476;-85
2021/11/06 08:11:16;;;;;;;3.57;3.27;;;1.10;99.90;1.00;98003.00;;;;5075829;28;20453;-85
2021/11/06 08:14:05;;;;;;;5.30;2.90;;;1.30;99.90;1.00;98002.00;;;;5074290;28;20442;-85
2021/11/06 08:16:56;;;;;;;4.50;3.43;;;1.50;99.90;0.90;98006.00;;;;5074549;28;20436;-85
2021/11/06 08:19:46;;;;;;;5.07;4.27;;;1.50;99.90;1.00;98011.00;;;;5066851;28;20769;-84
2021/11/06 08:22:36;;;;;;;10.27;4.10;;;1.60;99.90;1.40;98010.00;;;;5071127;28;20450;-85
2021/11/06 08:25:25;;;;;;;6.87;4.17;;;1.70;99.90;1.80;98026.00;;;;5069489;28;20932;-84
2021/11/06 08:28:17;;;;;;;5.33;3.73;;;1.90;99.90;1.90;98016.00;;;;5073266;28;20423;-85
2021/11/06 08:31:07;;;;;;;4.37;3.63;;;2.10;99.90;1.90;98018.00;;;;5075783;28;20467;-85
2021/11/06 08:33:56;;;;;;;4.33;3.93;;;2.20;99.90;2.10;98022.00;;;;5070819;28;20447;-84
2021/11/06 08:36:46;;;;;;;5.13;3.70;;;2.40;99.90;2.20;98026.00;;;;5070392;28;20742;-85
2021/11/06 08:39:36;;;;;;;5.93;4.60;;;2.50;99.90;2.60;98026.00;;;;5072241;28;20651;-84
2021/11/06 08:42:25;;;;;;;6.90;4.70;;;2.70;99.90;2.80;98009.00;;;;5066229;28;20457;-84
2021/11/06 08:45:16;;;;;;;5.23;3.83;;;2.90;99.90;3.00;98002.00;;;;5068041;28;20426;-84
2021/11/06 08:48:06;;;;;;;5.33;4.00;;;3.10;99.90;3.00;98006.00;;;;5062830;28;20429;-84
2021/11/06 08:50:55;;;;;;;4.43;3.83;;;3.30;99.90;2.60;97998.00;;;;5071768;28;20423;-84
2021/11/06 08:53:48;;;;;;;9.53;5.17;;;3.30;99.90;3.00;97996.00;;;;5075783;28;20441;-84
2021/11/06 08:56:36;;;;;;;4.57;4.17;;;3.40;99.90;3.50;98012.00;;;;5075609;28;20434;-84
2021/11/06 08:59:25;;;;;;;10.40;4.40;;;3.60;99.90;3.60;98014.00;;;;5071639;28;20425;-84
2021/11/06 09:02:15;;;;;;;8.33;4.97;;;3.80;99.90;3.90;98012.00;;;;5074663;28;20456;-85
2021/11/06 09:05:07;;;;;;;6.80;5.17;;;4.00;99.90;4.20;98007.00;;;;5073917;28;20444;-84
2021/11/06 09:07:57;;;;;;;6.70;4.87;;;4.20;99.90;4.30;98012.00;;;;5075486;28;20437;-84
2021/11/06 09:10:48;;;;;;;7.23;5.40;;;4.50;99.90;4.60;98013.00;;;;5103795;22;20237;-86
2021/11/06 09:13:38;;;;;;;9.00;5.60;;;4.70;99.90;4.70;98003.00;;;;5113318;28;20218;-86
2021/11/06 09:16:28;;;;;;;5.43;4.53;;;4.90;99.90;5.10;98001.00;;;;5097243;28;20199;-86
2021/11/06 09:19:17;;;;;;;8.07;5.23;;;5.00;99.90;5.40;98003.00;;;;5095970;28;20203;-86
2021/11/06 09:22:06;;;;;;;6.33;4.20;;;5.20;99.90;6.10;98002.00;;;;5092949;28;20597;-85
2021/11/06 09:24:55;;;;;;;7.27;5.10;;;5.50;99.90;6.50;98006.00;;;;5103371;28;20246;-84
2021/11/06 09:27:47;;;;;;;5.90;4.77;;;5.90;99.90;6.80;98007.00;;;;5098038;28;20586;-84
2021/11/06 09:30:35;;;;;;;7.27;5.63;;;6.20;99.90;7.40;98004.00;;;;5108234;27;20222;-84
2021/11/06 09:33:25;;;;;;;7.90;5.53;;;6.50;99.90;7.70;98014.00;;;;5094271;28;20198;-84
2021/11/06 09:36:14;;;;;;;5.70;4.07;;;6.90;99.90;8.00;98012.00;;;;5100678;27;20556;-84
2021/11/06 09:39:05;;;;;;;5.77;4.43;;;7.20;99.90;8.30;98009.00;;;;5100468;28;20206;-83
2021/11/06 09:41:54;;;;;;;5.10;3.93;;;7.60;99.90;8.50;98025.00;;;;5091889;28;20282;-81
2021/11/06 09:44:45;;;;;;;7.67;4.53;;;7.80;99.90;8.50;98024.00;;;;5092448;28;20219;-85
2021/11/06 09:47:34;;;;;;;5.40;4.10;;;8.00;99.90;8.70;98021.00;;;;5089743;28;20665;-85
2021/11/06 09:50:23;;;;;;;4.60;3.53;;;8.20;99.90;8.90;98026.00;;;;5089865;28;20226;-85
2021/11/06 09:53:12;;;;;;;5.80;3.67;;;8.40;99.90;9.20;98018.00;;;;5089998;28;20222;-86
2021/11/06 09:56:01;;;;;;;5.17;4.00;;;8.50;99.90;9.30;98010.00;;;;5093385;28;20194;-85
2021/11/06 09:58:54;;;;;;;6.23;4.13;;;8.70;99.90;9.50;98010.00;;;;5090968;28;20211;-83
2021/11/06 10:01:44;;;;;;;6.87;4.10;;;8.90;99.90;9.70;98004.00;;;;5089549;28;20198;-85
2021/11/06 10:04:33;;;;;;;5.77;4.27;;;9.10;99.90;9.90;98003.00;;;;5095923;28;20223;-83
2021/11/06 10:07:25;;;;;;;4.73;3.50;;;9.30;99.90;10.30;98002.00;;;;5090435;28;20577;-83
2021/11/06 10:10:21;;;;;;;3.87;3.40;;;9.50;99.90;10.60;97989.00;;;;5097652;28;20378;-83
2021/11/06 10:13:10;;;;;;;5.70;3.37;;;9.90;99.90;11.10;97998.00;;;;5090793;28;20587;-83
2021/11/06 10:16:00;;;;;;;5.43;3.63;;;10.30;99.90;11.60;97992.00;;;;5088388;28;20218;-84
2021/11/06 10:19:08;;;;;;;3.90;3.33;;;10.80;99.90;11.80;97995.00;;;;5112534;27;20190;-81
2021/11/06 10:22:09;;;;;;;5.67;3.97;;;11.40;99.90;12.30;97993.00;;;;5093797;28;20207;-81
2021/11/06 10:24:59;;;;;;;8.33;3.30;;;11.80;99.90;13.00;98004.00;;;;5097566;28;20210;-81
2021/11/06 10:27:53;;;;;;;3.53;2.50;;;12.40;99.90;13.30;97990.00;;;;5091099;28;20242;-81
2021/11/06 10:30:45;;;;;;;4.53;2.90;;;12.80;99.90;13.80;97991.00;;;;5106814;27;20233;-81
2021/11/06 10:33:47;;;;;;;3.77;2.47;;;13.20;99.90;14.20;97981.00;;;;5113718;27;20233;-81
2021/11/06 10:36:37;;;;;;;3.23;2.37;;;13.60;97.70;14.40;97993.00;;;;5108174;27;20206;-82
2021/11/06 10:39:26;;;;;;;2.87;2.00;;;14.00;93.70;14.00;97980.00;;;;5096862;27;20596;-81
2021/11/06 10:42:17;;;;;;;2.73;1.93;;;14.30;89.20;14.40;97997.00;;;;5112468;27;20607;-81
2021/11/06 10:45:11;;;;;;;3.27;2.33;;;14.40;85.00;14.90;97970.00;;;;5106537;27;20214;-81
2021/11/06 10:48:03;;;;;;;1.93;1.73;;;14.50;87.80;15.40;97963.00;;;;5099051;27;20464;-81
2021/11/06 10:50:59;;;;;;;2.73;2.20;;;14.80;86.50;15.90;97950.00;;;;5087586;27;20238;-81
2021/11/06 10:53:51;;;;;;;2.20;1.97;;;15.20;85.30;16.20;97953.00;;;;5114764;27;20452;-81
2021/11/06 10:56:42;;;;;;;1.27;1.10;;;15.60;81.50;16.20;97960.00;;;;5099000;27;20684;-83
2021/11/06 10:59:31;;;;;;;2.57;1.40;;;16.00;76.50;15.40;97961.00;;;;5090716;28;20215;-83
2021/11/06 11:02:25;;;;;;;2.30;1.43;;;16.40;65.60;15.20;97949.00;;;;5118656;27;20206;-83
2021/11/06 11:05:37;;;;;;;2.10;1.73;;;16.50;62.60;15.90;97940.00;;;;5098060;27;20227;-83
2021/11/06 11:08:27;;;;;;;1.87;1.70;;;16.20;63.10;16.00;97943.00;;;;5104039;27;20186;-83
2021/11/06 11:11:20;;;;;;;2.40;1.60;;;16.20;63.10;15.50;97937.00;;;;5107099;27;20606;-83
2021/11/06 11:14:11;;;;;;;3.00;1.73;;;16.20;60.90;16.30;97934.00;;;;5110048;27;20219;-83
2021/11/06 11:17:03;;;;;;;4.00;1.57;;;16.20;63.50;15.70;97915.00;;;;5115916;27;20718;-83
2021/11/06 11:19:52;;;;;;;2.20;1.50;;;16.30;62.20;14.80;97902.00;;;;5104690;27;20202;-83
2021/11/06 11:22:40;;;;;;;1.80;1.70;;;16.50;60.00;15.20;97895.00;;;;5111253;27;20202;-83
2021/11/06 11:25:30;;;;;;;4.20;2.63;;;16.60;59.70;16.20;97904.00;;;;5107784;27;20237;-82
2021/11/06 11:28:20;;;;;;;2.47;1.70;;;16.70;59.80;16.70;97898.00;;;;5099889;28;20647;-82
2021/11/06 11:31:10;;;;;;;2.57;1.67;;;16.90;59.60;14.80;97921.00;;;;5103279;27;20223;-82
2021/11/06 11:33:59;;;;;;;1.90;1.60;;;16.90;57.50;15.80;97887.00;;;;5104512;28;20226;-81
2021/11/06 11:36:50;;;;;;;2.00;1.57;;;16.80;58.20;17.40;97889.00;;;;5108684;27;20205;-82
2021/11/06 11:39:39;;;;;;;1.10;1.00;;;17.10;59.00;15.60;97901.00;;;;5116760;27;20205;-81
2021/11/06 11:42:42;;;;;;;1.30;1.10;;;17.50;57.40;15.90;97904.00;;;;5111940;27;20204;-81
2021/11/06 11:45:40;;;;;;;1.10;1.00;;;17.10;56.50;15.90;97891.00;;;;5108827;28;20222;-81
2021/11/06 11:48:30;;;;;;;2.20;1.53;;;16.90;56.70;15.70;97884.00;;;;5108493;28;20198;-82
2021/11/06 11:51:30;;;;;;;1.27;1.17;;;16.80;56.70;15.60;97859.00;;;;5101888;28;20224;-81
2021/11/06 11:54:20;;;;;;;2.30;1.93;;;16.70;55.60;17.00;97890.00;;;;5102773;28;20737;-81
2021/11/06 11:57:16;;;;;;;1.53;1.13;;;16.90;56.20;17.00;97883.00;;;;5108107;28;20202;-81
2021/11/06 12:00:42;;;;;;;0.60;0.60;;;17.00;55.10;17.20;97888.00;;;;5104659;28;20207;-80
2021/11/06 12:03:34;;;;;;;1.00;0.83;;;17.20;55.10;16.50;97869.00;;;;5103894;28;20220;-88
2021/11/06 12:06:27;;;;;;;0.70;0.70;;;17.30;52.90;15.60;97861.00;;;;5095693;28;20207;-79
2021/11/06 12:09:26;;;;;;;0.97;0.80;;;17.20;51.50;15.90;97886.00;;;;5104856;28;20473;-79
2021/11/06 12:12:15;;;;;;;1.90;1.17;;;16.70;51.80;16.00;97904.00;;;;5106235;28;20233;-84
2021/11/06 12:15:04;;;;;;;1.30;1.00;;;16.50;54.50;14.10;97892.00;;;;5109114;28;20227;-78
2021/11/06 12:17:54;;;;;;;1.30;1.20;;;16.10;54.00;13.50;97899.00;;;;5103079;28;20242;-79
2021/11/06 12:20:43;;;;;;;2.80;1.67;;;15.30;54.70;13.80;97894.00;;;;5113277;28;20225;-78
2021/11/06 12:23:33;;;;;;;3.60;1.50;;;14.70;55.80;13.90;97900.00;;;;5108206;28;20634;-78
2021/11/06 12:26:24;;;;;;;1.87;1.43;;;14.40;57.10;13.80;97898.00;;;;5104000;28;20673;-79
2021/11/06 12:29:45;;;;;;;1.23;1.13;;;14.00;59.60;13.50;97895.00;;;;5090336;28;20473;-78
2021/11/06 12:32:39;;;;;;;2.37;1.70;;;13.80;61.80;12.80;97882.00;;;;5093657;28;20228;-78
2021/11/06 12:35:31;;;;;;;1.67;1.40;;;13.40;64.00;11.70;97879.00;;;;5093139;28;20230;-79
2021/11/06 12:38:35;;;;;;;2.90;1.50;;;13.10;65.30;11.20;97876.00;;;;5093491;28;20206;-79
2021/11/06 12:41:29;;;;;;;1.93;1.67;;;12.40;66.90;11.40;97878.00;;;;5090305;28;20670;-79